sensor_id;sensor_type;location;lat;lon;timestamp;P1;durP1;ratioP1;P2;durP2;ratioP2
31692;SDS011;37436;53.230;6.614;2023-02-28T00:00:31;6.95;;;2.95;;
31692;SDS011;37436;53.230;6.614;2023-02-28T00:02:58;13.50;;;3.28;;
31692;SDS011;37436;53.230;6.614;2023-02-28T00:05:26;13.77;;;3.17;;
31692;SDS011;37436;53.230;6.614;2023-02-28T00:07:53;8.98;;;2.90;;
31692;SDS011;37436;53.230;6.614;2023-02-28T00:10:21;20.52;;;3.53;;
31692;SDS011;37436;53.230;6.614;2023-02-28T00:12:48;8.82;;;3.33;;
31692;SDS011;37436;53.230;6.614;2023-02-28T00:15:16;17.52;;;4.25;;
31692;SDS011;37436;53.230;6.614;2023-02-28T00:17:43;11.75;;;3.38;;
31692;SDS011;37436;53.230;6.614;2023-02-28T00:20:10;11.70;;;3.67;;
31692;SDS011;37436;53.230;6.614;2023-02-28T00:22:37;9.32;;;3.17;;
31692;SDS011;37436;53.230;6.614;2023-02-28T00:25:09;11.55;;;2.90;;
31692;SDS011;37436;53.230;6.614;2023-02-28T00:27:37;12.65;;;3.28;;
31692;SDS011;37436;53.230;6.614;2023-02-28T00:30:07;8.95;;;2.97;;
31692;SDS011;37436;53.230;6.614;2023-02-28T00:32:33;9.18;;;3.00;;
31692;SDS011;37436;53.230;6.614;2023-02-28T00:35:00;13.00;;;4.25;;
31692;SDS011;37436;53.230;6.614;2023-02-28T00:37:29;9.77;;;3.50;;
31692;SDS011;37436;53.230;6.614;2023-02-28T00:39:55;12.02;;;3.22;;
31692;SDS011;37436;53.230;6.614;2023-02-28T00:42:22;9.60;;;3.25;;
31692;SDS011;37436;53.230;6.614;2023-02-28T00:44:50;14.95;;;3.30;;
31692;SDS011;37436;53.230;6.614;2023-02-28T00:47:16;12.68;;;3.50;;
31692;SDS011;37436;53.230;6.614;2023-02-28T00:49:46;10.63;;;2.85;;
31692;SDS011;37436;53.230;6.614;2023-02-28T00:52:12;14.35;;;3.58;;
31692;SDS011;37436;53.230;6.614;2023-02-28T00:54:38;6.22;;;2.88;;
31692;SDS011;37436;53.230;6.614;2023-02-28T00:57:04;10.95;;;2.67;;
31692;SDS011;37436;53.230;6.614;2023-02-28T00:59:30;10.40;;;2.85;;
31692;SDS011;37436;53.230;6.614;2023-02-28T01:01:56;8.52;;;2.72;;
31692;SDS011;37436;53.230;6.614;2023-02-28T01:04:22;6.68;;;2.90;;
31692;SDS011;37436;53.230;6.614;2023-02-28T01:06:52;6.93;;;2.85;;
31692;SDS011;37436;53.230;6.614;2023-02-28T01:09:19;17.67;;;3.00;;
31692;SDS011;37436;53.230;6.614;2023-02-28T01:11:45;5.57;;;2.72;;
31692;SDS011;37436;53.230;6.614;2023-02-28T01:14:12;8.82;;;2.83;;
31692;SDS011;37436;53.230;6.614;2023-02-28T01:16:39;14.48;;;3.33;;
31692;SDS011;37436;53.230;6.614;2023-02-28T01:19:08;8.23;;;3.20;;
31692;SDS011;37436;53.230;6.614;2023-02-28T01:21:34;10.20;;;2.92;;
31692;SDS011;37436;53.230;6.614;2023-02-28T01:24:02;8.93;;;2.80;;
31692;SDS011;37436;53.230;6.614;2023-02-28T01:26:29;9.15;;;2.95;;
31692;SDS011;37436;53.230;6.614;2023-02-28T01:28:55;11.02;;;2.78;;
31692;SDS011;37436;53.230;6.614;2023-02-28T01:31:22;6.57;;;2.67;;
31692;SDS011;37436;53.230;6.614;2023-02-28T01:33:48;6.70;;;2.47;;
31692;SDS011;37436;53.230;6.614;2023-02-28T01:36:18;14.10;;;3.03;;
31692;SDS011;37436;53.230;6.614;2023-02-28T01:38:44;8.90;;;2.80;;
31692;SDS011;37436;53.230;6.614;2023-02-28T01:41:24;13.60;;;2.90;;
31692;SDS011;37436;53.230;6.614;2023-02-28T01:43:55;12.20;;;2.75;;
31692;SDS011;37436;53.230;6.614;2023-02-28T01:46:22;10.82;;;2.55;;
31692;SDS011;37436;53.230;6.614;2023-02-28T01:48:53;10.82;;;2.70;;
31692;SDS011;37436;53.230;6.614;2023-02-28T01:53:58;11.50;;;2.58;;
31692;SDS011;37436;53.230;6.614;2023-02-28T01:56:27;7.18;;;2.42;;
31692;SDS011;37436;53.230;6.614;2023-02-28T01:58:53;9.00;;;2.83;;
31692;SDS011;37436;53.230;6.614;2023-02-28T02:01:20;7.10;;;2.30;;
31692;SDS011;37436;53.230;6.614;2023-02-28T02:03:51;11.60;;;2.35;;
31692;SDS011;37436;53.230;6.614;2023-02-28T02:06:24;9.80;;;2.72;;
31692;SDS011;37436;53.230;6.614;2023-02-28T02:08:51;9.23;;;3.45;;
31692;SDS011;37436;53.230;6.614;2023-02-28T02:11:17;10.10;;;2.42;;
31692;SDS011;37436;53.230;6.614;2023-02-28T02:16:21;8.55;;;2.97;;
31692;SDS011;37436;53.230;6.614;2023-02-28T02:18:53;12.32;;;2.88;;
31692;SDS011;37436;53.230;6.614;2023-02-28T02:29:28;8.85;;;2.42;;
31692;SDS011;37436;53.230;6.614;2023-02-28T02:34:40;7.88;;;2.10;;
31692;SDS011;37436;53.230;6.614;2023-02-28T02:37:24;11.90;;;2.88;;
31692;SDS011;37436;53.230;6.614;2023-02-28T02:40:05;5.18;;;2.25;;
31692;SDS011;37436;53.230;6.614;2023-02-28T02:45:17;5.25;;;1.90;;
31692;SDS011;37436;53.230;6.614;2023-02-28T02:47:44;6.65;;;2.20;;
31692;SDS011;37436;53.230;6.614;2023-02-28T02:50:12;12.13;;;2.15;;
31692;SDS011;37436;53.230;6.614;2023-02-28T02:52:42;5.32;;;2.47;;
31692;SDS011;37436;53.230;6.614;2023-02-28T02:55:10;5.55;;;2.70;;
31692;SDS011;37436;53.230;6.614;2023-02-28T02:57:43;20.25;;;3.97;;
31692;SDS011;37436;53.230;6.614;2023-02-28T03:00:11;13.88;;;3.92;;
31692;SDS011;37436;53.230;6.614;2023-02-28T03:02:38;10.48;;;4.53;;
31692;SDS011;37436;53.230;6.614;2023-02-28T03:05:12;18.55;;;4.82;;
31692;SDS011;37436;53.230;6.614;2023-02-28T03:07:41;13.30;;;5.03;;
31692;SDS011;37436;53.230;6.614;2023-02-28T03:12:54;9.00;;;4.35;;
31692;SDS011;37436;53.230;6.614;2023-02-28T03:15:26;15.43;;;5.28;;
31692;SDS011;37436;53.230;6.614;2023-02-28T03:33:14;19.20;;;6.82;;
31692;SDS011;37436;53.230;6.614;2023-02-28T03:35:47;17.75;;;6.80;;
31692;SDS011;37436;53.230;6.614;2023-02-28T03:38:18;16.60;;;6.40;;
31692;SDS011;37436;53.230;6.614;2023-02-28T03:40:48;17.15;;;6.20;;
31692;SDS011;37436;53.230;6.614;2023-02-28T03:43:22;15.88;;;6.53;;
31692;SDS011;37436;53.230;6.614;2023-02-28T03:45:50;14.90;;;7.20;;
31692;SDS011;37436;53.230;6.614;2023-02-28T03:48:21;13.32;;;6.40;;
31692;SDS011;37436;53.230;6.614;2023-02-28T03:50:57;18.02;;;6.35;;
31692;SDS011;37436;53.230;6.614;2023-02-28T03:53:28;16.77;;;6.63;;
31692;SDS011;37436;53.230;6.614;2023-02-28T03:55:59;13.27;;;6.63;;
31692;SDS011;37436;53.230;6.614;2023-02-28T03:58:30;12.52;;;5.70;;
31692;SDS011;37436;53.230;6.614;2023-02-28T04:01:07;12.32;;;5.80;;
31692;SDS011;37436;53.230;6.614;2023-02-28T04:03:37;15.02;;;6.00;;
31692;SDS011;37436;53.230;6.614;2023-02-28T04:06:04;12.15;;;5.63;;
31692;SDS011;37436;53.230;6.614;2023-02-28T04:08:31;20.17;;;6.43;;
31692;SDS011;37436;53.230;6.614;2023-02-28T04:11:04;12.25;;;5.55;;
31692;SDS011;37436;53.230;6.614;2023-02-28T04:13:32;14.88;;;6.35;;
31692;SDS011;37436;53.230;6.614;2023-02-28T04:15:59;9.70;;;5.35;;
31692;SDS011;37436;53.230;6.614;2023-02-28T04:18:36;22.38;;;5.80;;
31692;SDS011;37436;53.230;6.614;2023-02-28T04:21:02;14.15;;;6.38;;
31692;SDS011;37436;53.230;6.614;2023-02-28T04:23:30;11.95;;;5.35;;
31692;SDS011;37436;53.230;6.614;2023-02-28T04:25:56;12.00;;;5.30;;
31692;SDS011;37436;53.230;6.614;2023-02-28T04:28:22;10.60;;;5.20;;
31692;SDS011;37436;53.230;6.614;2023-02-28T04:30:54;11.15;;;5.43;;
31692;SDS011;37436;53.230;6.614;2023-02-28T04:33:20;10.40;;;4.95;;
31692;SDS011;37436;53.230;6.614;2023-02-28T04:35:47;13.85;;;5.10;;
31692;SDS011;37436;53.230;6.614;2023-02-28T04:38:13;9.55;;;5.03;;
31692;SDS011;37436;53.230;6.614;2023-02-28T04:40:39;11.55;;;5.15;;
31692;SDS011;37436;53.230;6.614;2023-02-28T04:43:15;10.25;;;5.57;;
31692;SDS011;37436;53.230;6.614;2023-02-28T04:45:41;10.82;;;4.35;;
31692;SDS011;37436;53.230;6.614;2023-02-28T04:48:18;10.02;;;4.47;;
31692;SDS011;37436;53.230;6.614;2023-02-28T04:50:51;10.30;;;4.78;;
31692;SDS011;37436;53.230;6.614;2023-02-28T04:53:18;10.30;;;4.63;;
31692;SDS011;37436;53.230;6.614;2023-02-28T04:55:44;12.75;;;5.53;;
31692;SDS011;37436;53.230;6.614;2023-02-28T04:58:11;12.45;;;4.95;;
31692;SDS011;37436;53.230;6.614;2023-02-28T05:00:37;14.10;;;4.75;;
31692;SDS011;37436;53.230;6.614;2023-02-28T05:03:03;8.85;;;4.55;;
31692;SDS011;37436;53.230;6.614;2023-02-28T05:05:29;7.78;;;4.03;;
31692;SDS011;37436;53.230;6.614;2023-02-28T05:07:56;8.60;;;4.03;;
31692;SDS011;37436;53.230;6.614;2023-02-28T05:10:22;7.18;;;4.05;;
31692;SDS011;37436;53.230;6.614;2023-02-28T05:12:49;12.57;;;4.10;;
31692;SDS011;37436;53.230;6.614;2023-02-28T05:15:19;9.20;;;3.50;;
31692;SDS011;37436;53.230;6.614;2023-02-28T05:17:45;7.07;;;4.10;;
31692;SDS011;37436;53.230;6.614;2023-02-28T05:20:11;8.13;;;3.97;;
31692;SDS011;37436;53.230;6.614;2023-02-28T05:22:39;5.30;;;3.90;;
31692;SDS011;37436;53.230;6.614;2023-02-28T05:25:05;11.25;;;3.70;;
31692;SDS011;37436;53.230;6.614;2023-02-28T05:27:34;7.95;;;4.00;;
31692;SDS011;37436;53.230;6.614;2023-02-28T05:30:20;12.68;;;5.93;;
31692;SDS011;37436;53.230;6.614;2023-02-28T05:32:50;12.18;;;4.38;;
31692;SDS011;37436;53.230;6.614;2023-02-28T05:35:16;12.98;;;4.13;;
31692;SDS011;37436;53.230;6.614;2023-02-28T05:37:43;13.15;;;4.60;;
31692;SDS011;37436;53.230;6.614;2023-02-28T05:40:09;10.43;;;4.47;;
31692;SDS011;37436;53.230;6.614;2023-02-28T05:42:36;12.63;;;5.00;;
31692;SDS011;37436;53.230;6.614;2023-02-28T05:45:04;8.93;;;5.03;;
31692;SDS011;37436;53.230;6.614;2023-02-28T05:47:35;11.65;;;5.38;;
31692;SDS011;37436;53.230;6.614;2023-02-28T05:50:02;9.13;;;4.97;;
31692;SDS011;37436;53.230;6.614;2023-02-28T05:52:28;8.23;;;4.45;;
31692;SDS011;37436;53.230;6.614;2023-02-28T05:54:57;11.38;;;5.78;;
31692;SDS011;37436;53.230;6.614;2023-02-28T05:57:23;14.43;;;5.72;;
31692;SDS011;37436;53.230;6.614;2023-02-28T05:59:49;18.63;;;6.40;;
31692;SDS011;37436;53.230;6.614;2023-02-28T06:02:16;16.48;;;7.00;;
31692;SDS011;37436;53.230;6.614;2023-02-28T06:04:43;16.38;;;7.00;;
31692;SDS011;37436;53.230;6.614;2023-02-28T06:07:10;18.17;;;7.63;;
31692;SDS011;37436;53.230;6.614;2023-02-28T06:09:37;14.05;;;5.80;;
31692;SDS011;37436;53.230;6.614;2023-02-28T06:12:04;14.50;;;6.55;;
31692;SDS011;37436;53.230;6.614;2023-02-28T06:14:33;15.63;;;6.47;;
31692;SDS011;37436;53.230;6.614;2023-02-28T06:17:00;12.25;;;5.45;;
31692;SDS011;37436;53.230;6.614;2023-02-28T06:19:28;12.60;;;6.28;;
31692;SDS011;37436;53.230;6.614;2023-02-28T06:21:55;9.05;;;3.95;;
31692;SDS011;37436;53.230;6.614;2023-02-28T06:24:22;17.23;;;7.20;;
31692;SDS011;37436;53.230;6.614;2023-02-28T06:26:49;15.43;;;6.65;;
31692;SDS011;37436;53.230;6.614;2023-02-28T06:29:15;11.35;;;4.32;;
31692;SDS011;37436;53.230;6.614;2023-02-28T06:31:46;10.93;;;5.90;;
31692;SDS011;37436;53.230;6.614;2023-02-28T06:34:13;13.48;;;6.38;;
31692;SDS011;37436;53.230;6.614;2023-02-28T06:36:39;24.33;;;8.57;;
31692;SDS011;37436;53.230;6.614;2023-02-28T06:39:06;23.45;;;7.13;;
31692;SDS011;37436;53.230;6.614;2023-02-28T06:41:32;13.45;;;6.93;;
31692;SDS011;37436;53.230;6.614;2023-02-28T06:44:02;18.95;;;7.55;;
31692;SDS011;37436;53.230;6.614;2023-02-28T06:46:28;22.80;;;9.85;;
31692;SDS011;37436;53.230;6.614;2023-02-28T06:48:55;11.75;;;6.30;;
31692;SDS011;37436;53.230;6.614;2023-02-28T06:51:21;15.43;;;7.10;;
31692;SDS011;37436;53.230;6.614;2023-02-28T06:53:47;18.88;;;6.60;;
31692;SDS011;37436;53.230;6.614;2023-02-28T06:56:15;20.13;;;8.07;;
31692;SDS011;37436;53.230;6.614;2023-02-28T06:58:45;25.67;;;8.95;;
31692;SDS011;37436;53.230;6.614;2023-02-28T07:01:13;21.05;;;7.57;;
31692;SDS011;37436;53.230;6.614;2023-02-28T07:03:39;21.27;;;7.95;;
31692;SDS011;37436;53.230;6.614;2023-02-28T07:06:05;15.73;;;7.47;;
31692;SDS011;37436;53.230;6.614;2023-02-28T07:08:32;15.55;;;7.97;;
31692;SDS011;37436;53.230;6.614;2023-02-28T07:10:58;21.95;;;7.85;;
31692;SDS011;37436;53.230;6.614;2023-02-28T07:13:25;23.02;;;7.93;;
31692;SDS011;37436;53.230;6.614;2023-02-28T07:18:20;26.42;;;8.60;;
31692;SDS011;37436;53.230;6.614;2023-02-28T07:20:48;12.73;;;5.53;;
31692;SDS011;37436;53.230;6.614;2023-02-28T07:23:14;17.25;;;8.02;;
31692;SDS011;37436;53.230;6.614;2023-02-28T07:25:40;16.75;;;7.53;;
31692;SDS011;37436;53.230;6.614;2023-02-28T07:28:06;18.50;;;7.35;;
31692;SDS011;37436;53.230;6.614;2023-02-28T07:30:32;19.95;;;8.90;;
31692;SDS011;37436;53.230;6.614;2023-02-28T07:32:59;21.23;;;8.13;;
31692;SDS011;37436;53.230;6.614;2023-02-28T07:35:25;26.17;;;9.85;;
31692;SDS011;37436;53.230;6.614;2023-02-28T07:37:54;21.20;;;9.60;;
31692;SDS011;37436;53.230;6.614;2023-02-28T07:40:20;26.80;;;8.93;;
31692;SDS011;37436;53.230;6.614;2023-02-28T07:42:46;23.80;;;9.15;;
31692;SDS011;37436;53.230;6.614;2023-02-28T07:45:13;15.50;;;7.93;;
31692;SDS011;37436;53.230;6.614;2023-02-28T07:47:39;18.02;;;8.60;;
31692;SDS011;37436;53.230;6.614;2023-02-28T07:50:06;18.10;;;8.50;;
31692;SDS011;37436;53.230;6.614;2023-02-28T07:52:32;18.83;;;8.23;;
31692;SDS011;37436;53.230;6.614;2023-02-28T07:54:59;19.17;;;8.35;;
31692;SDS011;37436;53.230;6.614;2023-02-28T07:57:27;19.20;;;8.55;;
31692;SDS011;37436;53.230;6.614;2023-02-28T07:59:53;19.55;;;8.40;;
31692;SDS011;37436;53.230;6.614;2023-02-28T08:02:20;25.25;;;8.90;;
31692;SDS011;37436;53.230;6.614;2023-02-28T08:04:46;21.77;;;9.57;;
31692;SDS011;37436;53.230;6.614;2023-02-28T08:07:13;22.02;;;8.05;;
31692;SDS011;37436;53.230;6.614;2023-02-28T08:09:40;21.80;;;8.57;;
31692;SDS011;37436;53.230;6.614;2023-02-28T08:12:07;19.88;;;8.35;;
31692;SDS011;37436;53.230;6.614;2023-02-28T08:14:33;23.65;;;10.18;;
31692;SDS011;37436;53.230;6.614;2023-02-28T08:16:59;24.45;;;9.75;;
31692;SDS011;37436;53.230;6.614;2023-02-28T08:19:26;31.33;;;9.60;;
31692;SDS011;37436;53.230;6.614;2023-02-28T08:21:52;19.38;;;9.20;;
31692;SDS011;37436;53.230;6.614;2023-02-28T08:24:18;22.88;;;9.38;;
31692;SDS011;37436;53.230;6.614;2023-02-28T08:26:44;21.92;;;9.50;;
31692;SDS011;37436;53.230;6.614;2023-02-28T08:29:13;31.27;;;12.90;;
31692;SDS011;37436;53.230;6.614;2023-02-28T08:31:39;17.75;;;9.45;;
31692;SDS011;37436;53.230;6.614;2023-02-28T08:34:06;20.10;;;9.40;;
31692;SDS011;37436;53.230;6.614;2023-02-28T08:36:35;17.20;;;8.40;;
31692;SDS011;37436;53.230;6.614;2023-02-28T08:39:23;18.70;;;8.70;;
31692;SDS011;37436;53.230;6.614;2023-02-28T08:41:48;17.10;;;8.02;;
31692;SDS011;37436;53.230;6.614;2023-02-28T08:44:19;21.88;;;8.50;;
31692;SDS011;37436;53.230;6.614;2023-02-28T08:46:45;16.73;;;8.05;;
31692;SDS011;37436;53.230;6.614;2023-02-28T08:49:11;19.30;;;9.55;;
31692;SDS011;37436;53.230;6.614;2023-02-28T08:51:41;20.48;;;8.63;;
31692;SDS011;37436;53.230;6.614;2023-02-28T08:54:18;20.70;;;8.25;;
31692;SDS011;37436;53.230;6.614;2023-02-28T08:56:54;18.65;;;7.88;;
31692;SDS011;37436;53.230;6.614;2023-02-28T08:59:23;15.05;;;7.60;;
31692;SDS011;37436;53.230;6.614;2023-02-28T09:01:51;15.07;;;8.80;;
31692;SDS011;37436;53.230;6.614;2023-02-28T09:04:33;18.08;;;8.38;;
31692;SDS011;37436;53.230;6.614;2023-02-28T09:06:59;20.95;;;8.80;;
31692;SDS011;37436;53.230;6.614;2023-02-28T09:09:29;20.38;;;9.27;;
31692;SDS011;37436;53.230;6.614;2023-02-28T09:11:56;20.60;;;9.52;;
31692;SDS011;37436;53.230;6.614;2023-02-28T09:14:31;25.95;;;9.43;;
31692;SDS011;37436;53.230;6.614;2023-02-28T09:17:10;19.13;;;8.95;;
31692;SDS011;37436;53.230;6.614;2023-02-28T09:19:47;21.83;;;8.88;;
31692;SDS011;37436;53.230;6.614;2023-02-28T09:22:14;16.08;;;7.78;;
31692;SDS011;37436;53.230;6.614;2023-02-28T09:27:26;23.20;;;8.60;;
31692;SDS011;37436;53.230;6.614;2023-02-28T09:30:08;13.98;;;7.72;;
31692;SDS011;37436;53.230;6.614;2023-02-28T09:32:43;16.50;;;8.55;;
31692;SDS011;37436;53.230;6.614;2023-02-28T09:35:22;18.63;;;9.05;;
31692;SDS011;37436;53.230;6.614;2023-02-28T09:38:18;15.63;;;7.80;;
31692;SDS011;37436;53.230;6.614;2023-02-28T09:40:58;14.88;;;7.90;;
31692;SDS011;37436;53.230;6.614;2023-02-28T09:43:35;16.17;;;7.78;;
31692;SDS011;37436;53.230;6.614;2023-02-28T09:49:07;16.27;;;8.77;;
31692;SDS011;37436;53.230;6.614;2023-02-28T09:51:43;17.93;;;8.17;;
31692;SDS011;37436;53.230;6.614;2023-02-28T09:54:21;17.65;;;8.43;;
31692;SDS011;37436;53.230;6.614;2023-02-28T09:56:59;17.42;;;8.30;;
31692;SDS011;37436;53.230;6.614;2023-02-28T10:02:17;16.67;;;7.82;;
31692;SDS011;37436;53.230;6.614;2023-02-28T10:09:46;14.25;;;7.68;;
31692;SDS011;37436;53.230;6.614;2023-02-28T10:12:16;14.45;;;7.65;;
31692;SDS011;37436;53.230;6.614;2023-02-28T10:14:46;14.60;;;7.50;;
31692;SDS011;37436;53.230;6.614;2023-02-28T10:25:24;20.75;;;7.20;;
31692;SDS011;37436;53.230;6.614;2023-02-28T10:27:52;14.63;;;6.95;;
31692;SDS011;37436;53.230;6.614;2023-02-28T10:30:43;21.67;;;7.30;;
31692;SDS011;37436;53.230;6.614;2023-02-28T10:33:33;13.10;;;7.32;;
31692;SDS011;37436;53.230;6.614;2023-02-28T10:36:00;15.68;;;7.00;;
31692;SDS011;37436;53.230;6.614;2023-02-28T10:47:16;12.07;;;5.50;;
31692;SDS011;37436;53.230;6.614;2023-02-28T10:52:36;12.38;;;5.60;;
31692;SDS011;37436;53.230;6.614;2023-02-28T10:55:29;10.02;;;5.90;;
31692;SDS011;37436;53.230;6.614;2023-02-28T10:58:12;9.63;;;6.25;;
31692;SDS011;37436;53.230;6.614;2023-02-28T11:00:56;12.15;;;5.28;;
31692;SDS011;37436;53.230;6.614;2023-02-28T11:12:26;10.48;;;4.80;;
31692;SDS011;37436;53.230;6.614;2023-02-28T11:17:42;9.18;;;5.50;;
31692;SDS011;37436;53.230;6.614;2023-02-28T11:23:10;11.27;;;5.78;;
31692;SDS011;37436;53.230;6.614;2023-02-28T11:37:37;6.90;;;5.18;;
31692;SDS011;37436;53.230;6.614;2023-02-28T11:45:43;9.32;;;5.30;;
31692;SDS011;37436;53.230;6.614;2023-02-28T12:03:06;9.95;;;5.68;;
31692;SDS011;37436;53.230;6.614;2023-02-28T12:25:39;7.38;;;4.32;;
31692;SDS011;37436;53.230;6.614;2023-02-28T12:28:07;9.48;;;4.95;;
31692;SDS011;37436;53.230;6.614;2023-02-28T12:30:49;7.60;;;4.63;;
31692;SDS011;37436;53.230;6.614;2023-02-28T12:33:22;8.48;;;4.78;;
31692;SDS011;37436;53.230;6.614;2023-02-28T12:38:26;8.52;;;4.25;;
31692;SDS011;37436;53.230;6.614;2023-02-28T12:41:03;8.93;;;4.80;;
31692;SDS011;37436;53.230;6.614;2023-02-28T12:43:37;6.95;;;4.55;;
31692;SDS011;37436;53.230;6.614;2023-02-28T12:46:21;13.02;;;4.85;;
31692;SDS011;37436;53.230;6.614;2023-02-28T12:49:36;8.75;;;4.20;;
31692;SDS011;37436;53.230;6.614;2023-02-28T12:51:35;9.38;;;4.65;;
31692;SDS011;37436;53.230;6.614;2023-02-28T12:56:53;11.48;;;5.25;;
31692;SDS011;37436;53.230;6.614;2023-02-28T12:59:41;9.98;;;6.40;;
31692;SDS011;37436;53.230;6.614;2023-02-28T13:10:44;12.60;;;4.97;;
31692;SDS011;37436;53.230;6.614;2023-02-28T13:16:08;7.15;;;4.38;;
31692;SDS011;37436;53.230;6.614;2023-02-28T13:19:10;7.65;;;4.45;;
31692;SDS011;37436;53.230;6.614;2023-02-28T13:25:54;8.13;;;5.10;;
31692;SDS011;37436;53.230;6.614;2023-02-28T13:31:41;12.50;;;4.72;;
31692;SDS011;37436;53.230;6.614;2023-02-28T13:46:25;6.32;;;4.68;;
31692;SDS011;37436;53.230;6.614;2023-02-28T13:48:53;5.05;;;4.18;;
31692;SDS011;37436;53.230;6.614;2023-02-28T13:54:56;8.52;;;4.38;;
31692;SDS011;37436;53.230;6.614;2023-02-28T14:03:29;6.90;;;4.40;;
31692;SDS011;37436;53.230;6.614;2023-02-28T14:11:39;9.95;;;5.40;;
31692;SDS011;37436;53.230;6.614;2023-02-28T14:17:06;7.78;;;5.15;;
31692;SDS011;37436;53.230;6.614;2023-02-28T14:19:43;9.85;;;5.13;;
31692;SDS011;37436;53.230;6.614;2023-02-28T14:22:45;7.60;;;5.80;;
31692;SDS011;37436;53.230;6.614;2023-02-28T14:31:44;7.03;;;5.32;;
31692;SDS011;37436;53.230;6.614;2023-02-28T14:36:58;11.75;;;5.47;;
31692;SDS011;37436;53.230;6.614;2023-02-28T14:39:28;7.65;;;5.57;;
31692;SDS011;37436;53.230;6.614;2023-02-28T14:42:02;7.10;;;5.10;;
31692;SDS011;37436;53.230;6.614;2023-02-28T14:44:31;11.75;;;5.03;;
31692;SDS011;37436;53.230;6.614;2023-02-28T14:47:00;9.05;;;5.45;;
31692;SDS011;37436;53.230;6.614;2023-02-28T14:52:30;13.65;;;5.55;;
31692;SDS011;37436;53.230;6.614;2023-02-28T14:55:28;10.68;;;6.57;;
31692;SDS011;37436;53.230;6.614;2023-02-28T14:58:04;9.40;;;6.35;;
31692;SDS011;37436;53.230;6.614;2023-02-28T15:00:50;8.73;;;6.05;;
31692;SDS011;37436;53.230;6.614;2023-02-28T15:09:19;9.32;;;6.05;;
31692;SDS011;37436;53.230;6.614;2023-02-28T15:20:43;10.57;;;5.57;;
31692;SDS011;37436;53.230;6.614;2023-02-28T15:23:14;8.57;;;6.18;;
31692;SDS011;37436;53.230;6.614;2023-02-28T15:26:05;9.75;;;5.35;;
31692;SDS011;37436;53.230;6.614;2023-02-28T15:28:41;9.32;;;5.53;;
31692;SDS011;37436;53.230;6.614;2023-02-28T15:31:19;14.63;;;5.68;;
31692;SDS011;37436;53.230;6.614;2023-02-28T15:34:06;10.20;;;5.90;;
31692;SDS011;37436;53.230;6.614;2023-02-28T15:36:43;8.93;;;5.43;;
31692;SDS011;37436;53.230;6.614;2023-02-28T15:39:29;9.25;;;5.97;;
31692;SDS011;37436;53.230;6.614;2023-02-28T15:42:18;7.75;;;5.80;;
31692;SDS011;37436;53.230;6.614;2023-02-28T15:44:54;8.18;;;5.63;;
31692;SDS011;37436;53.230;6.614;2023-02-28T15:47:29;10.35;;;5.55;;
31692;SDS011;37436;53.230;6.614;2023-02-28T15:52:51;10.98;;;6.40;;
31692;SDS011;37436;53.230;6.614;2023-02-28T15:55:28;9.20;;;5.65;;
31692;SDS011;37436;53.230;6.614;2023-02-28T15:58:04;10.02;;;5.80;;
31692;SDS011;37436;53.230;6.614;2023-02-28T16:00:31;12.52;;;6.72;;
31692;SDS011;37436;53.230;6.614;2023-02-28T16:09:02;10.02;;;5.30;;
31692;SDS011;37436;53.230;6.614;2023-02-28T16:11:38;9.68;;;6.63;;
31692;SDS011;37436;53.230;6.614;2023-02-28T16:14:12;9.38;;;5.88;;
31692;SDS011;37436;53.230;6.614;2023-02-28T16:16:55;9.85;;;6.43;;
31692;SDS011;37436;53.230;6.614;2023-02-28T16:19:54;10.27;;;6.22;;
31692;SDS011;37436;53.230;6.614;2023-02-28T16:22:46;16.88;;;6.95;;
31692;SDS011;37436;53.230;6.614;2023-02-28T16:25:25;9.45;;;6.35;;
31692;SDS011;37436;53.230;6.614;2023-02-28T16:28:02;11.45;;;6.95;;
31692;SDS011;37436;53.230;6.614;2023-02-28T16:30:36;13.77;;;7.38;;
31692;SDS011;37436;53.230;6.614;2023-02-28T16:33:22;9.02;;;6.43;;
31692;SDS011;37436;53.230;6.614;2023-02-28T16:35:54;10.10;;;6.47;;
31692;SDS011;37436;53.230;6.614;2023-02-28T16:38:41;11.35;;;7.10;;
31692;SDS011;37436;53.230;6.614;2023-02-28T16:44:35;13.57;;;7.70;;
31692;SDS011;37436;53.230;6.614;2023-02-28T16:47:14;20.85;;;11.50;;
31692;SDS011;37436;53.230;6.614;2023-02-28T16:56:12;24.77;;;10.00;;
31692;SDS011;37436;53.230;6.614;2023-02-28T17:01:39;25.80;;;10.93;;
31692;SDS011;37436;53.230;6.614;2023-02-28T17:07:22;21.90;;;9.43;;
31692;SDS011;37436;53.230;6.614;2023-02-28T17:09:57;27.42;;;9.95;;
31692;SDS011;37436;53.230;6.614;2023-02-28T17:12:40;26.10;;;13.23;;
31692;SDS011;37436;53.230;6.614;2023-02-28T17:15:12;21.20;;;11.75;;
31692;SDS011;37436;53.230;6.614;2023-02-28T17:17:52;25.25;;;12.30;;
31692;SDS011;37436;53.230;6.614;2023-02-28T17:20:21;18.75;;;10.98;;
31692;SDS011;37436;53.230;6.614;2023-02-28T17:26:12;17.45;;;9.15;;
31692;SDS011;37436;53.230;6.614;2023-02-28T17:29:00;16.95;;;9.57;;
31692;SDS011;37436;53.230;6.614;2023-02-28T17:31:27;21.60;;;9.73;;
31692;SDS011;37436;53.230;6.614;2023-02-28T17:34:04;15.63;;;9.18;;
31692;SDS011;37436;53.230;6.614;2023-02-28T17:36:33;20.52;;;12.50;;
31692;SDS011;37436;53.230;6.614;2023-02-28T17:39:05;24.10;;;10.43;;
31692;SDS011;37436;53.230;6.614;2023-02-28T17:45:00;22.30;;;12.20;;
31692;SDS011;37436;53.230;6.614;2023-02-28T17:50:23;28.13;;;12.00;;
31692;SDS011;37436;53.230;6.614;2023-02-28T17:52:57;24.45;;;12.07;;
31692;SDS011;37436;53.230;6.614;2023-02-28T17:55:29;23.50;;;10.65;;
31692;SDS011;37436;53.230;6.614;2023-02-28T17:58:26;17.80;;;10.40;;
31692;SDS011;37436;53.230;6.614;2023-02-28T18:00:52;21.92;;;11.43;;
31692;SDS011;37436;53.230;6.614;2023-02-28T18:03:19;25.27;;;11.05;;
31692;SDS011;37436;53.230;6.614;2023-02-28T18:05:47;20.83;;;11.05;;
31692;SDS011;37436;53.230;6.614;2023-02-28T18:08:14;19.80;;;9.75;;
31692;SDS011;37436;53.230;6.614;2023-02-28T18:10:40;28.35;;;11.43;;
31692;SDS011;37436;53.230;6.614;2023-02-28T18:13:07;34.08;;;14.98;;
31692;SDS011;37436;53.230;6.614;2023-02-28T18:15:36;42.60;;;17.95;;
31692;SDS011;37436;53.230;6.614;2023-02-28T18:18:02;36.65;;;14.93;;
31692;SDS011;37436;53.230;6.614;2023-02-28T18:20:28;26.80;;;13.50;;
31692;SDS011;37436;53.230;6.614;2023-02-28T18:23:08;23.63;;;12.02;;
31692;SDS011;37436;53.230;6.614;2023-02-28T18:25:39;24.50;;;12.88;;
31692;SDS011;37436;53.230;6.614;2023-02-28T18:28:16;24.52;;;11.60;;
31692;SDS011;37436;53.230;6.614;2023-02-28T18:30:42;22.40;;;11.20;;
31692;SDS011;37436;53.230;6.614;2023-02-28T18:33:10;23.55;;;10.95;;
31692;SDS011;37436;53.230;6.614;2023-02-28T18:35:36;21.38;;;10.38;;
31692;SDS011;37436;53.230;6.614;2023-02-28T18:38:10;21.50;;;11.13;;
31692;SDS011;37436;53.230;6.614;2023-02-28T18:40:37;26.83;;;11.55;;
31692;SDS011;37436;53.230;6.614;2023-02-28T18:43:03;29.52;;;11.13;;
31692;SDS011;37436;53.230;6.614;2023-02-28T18:45:30;18.65;;;10.98;;
31692;SDS011;37436;53.230;6.614;2023-02-28T18:47:56;20.05;;;9.27;;
31692;SDS011;37436;53.230;6.614;2023-02-28T18:50:23;21.05;;;10.77;;
31692;SDS011;37436;53.230;6.614;2023-02-28T18:52:50;24.15;;;10.30;;
31692;SDS011;37436;53.230;6.614;2023-02-28T18:55:19;23.02;;;10.32;;
31692;SDS011;37436;53.230;6.614;2023-02-28T18:57:46;22.40;;;10.25;;
31692;SDS011;37436;53.230;6.614;2023-02-28T19:00:14;24.73;;;11.95;;
31692;SDS011;37436;53.230;6.614;2023-02-28T19:02:43;24.20;;;11.55;;
31692;SDS011;37436;53.230;6.614;2023-02-28T19:05:10;34.75;;;14.20;;
31692;SDS011;37436;53.230;6.614;2023-02-28T19:07:37;23.38;;;11.57;;
31692;SDS011;37436;53.230;6.614;2023-02-28T19:10:06;26.83;;;12.30;;
31692;SDS011;37436;53.230;6.614;2023-02-28T19:12:37;29.25;;;11.77;;